Time;durP1;ratioP1;P1;durP2;ratioP2;P2;SDS_P1;SDS_P2;PMS_P1;PMS_P2;Temp;Humidity;BMP_temperature;BMP_pressure;BME280_temperature;BME280_humidity;BME280_pressure;Samples;Min_cycle;Max_cycle;Signal;HPM_P1;HPM_P2
2023/12/08 00:01:27;;;;;;;;;;;;;;;;;;5074948;28;19989;-82
2023/12/08 00:03:53;;;;;;;;;;;;;;;;;;5077633;28;19928;-81
2023/12/08 00:06:20;;;;;;;;;;;;;;;;;;5075602;28;19981;-81
2023/12/08 00:08:46;;;;;;;;;;;;;;;;;;5074791;28;19928;-82
2023/12/08 00:11:12;;;;;;;;;;;;;;;;;;5075672;28;19929;-81
2023/12/08 00:13:38;;;;;;;;;;;;;;;;;;5075259;28;19925;-82
2023/12/08 00:16:05;;;;;;;;;;;;;;;;;;5075270;28;20022;-81
2023/12/08 00:18:31;;;;;;;;;;;;;;;;;;5080770;28;19925;-81
2023/12/08 00:20:57;;;;;;;;;;;;;;;;;;5076174;28;19981;-79
2023/12/08 00:23:24;;;;;;;;;;;;;;;;;;5074905;28;19948;-79
2023/12/08 00:25:50;;;;;;;;;;;;;;;;;;5075336;28;19924;-78
2023/12/08 00:28:16;;;;;;;;;;;;;;;;;;5074719;28;19978;-78
2023/12/08 00:30:42;;;;;;;;;;;;;;;;;;5074242;28;20445;-78
2023/12/08 00:33:09;;;;;;;;;;;;;;;;;;5073312;28;20377;-77
2023/12/08 00:35:35;;;;;;;;;;;;;;;;;;5075157;28;19924;-78
2023/12/08 00:38:01;;;;;;;;;;;;;;;;;;5074876;28;20026;-78
2023/12/08 00:40:28;;;;;;;;;;;;;;;;;;5074068;28;19982;-77
2023/12/08 00:42:54;;;;;;;;;;;;;;;;;;5074797;28;19928;-79
2023/12/08 00:45:21;;;;;;;;;;;;;;;;;;5074690;28;19928;-79
2023/12/08 00:47:47;;;;;;;;;;;;;;;;;;5074700;28;20180;-78
2023/12/08 00:50:13;;;;;;;;;;;;;;;;;;5071452;28;19966;-77
2023/12/08 00:52:40;;;;;;;;;;;;;;;;;;5074415;28;19928;-79
2023/12/08 00:55:06;;;;;;;;;;;;;;;;;;5074274;28;19928;-79
2023/12/08 00:57:32;;;;;;;;;;;;;;;;;;5074270;28;19925;-79
2023/12/08 00:59:59;;;;;;;;;;;;;;;;;;5074272;28;20431;-80
2023/12/08 01:02:25;;;;;;;;;;;;;;;;;;5073191;28;19993;-79
2023/12/08 01:04:51;;;;;;;;;;;;;;;;;;5073045;28;19928;-79
2023/12/08 01:07:17;;;;;;;;;;;;;;;;;;5074206;28;19978;-80
2023/12/08 01:09:44;;;;;;;;;;;;;;;;;;5074319;28;19928;-80
2023/12/08 01:12:10;;;;;;;;;;;;;;;;;;5073475;28;19924;-77
2023/12/08 01:14:36;;;;;;;;;;;;;;;;;;5074174;28;19929;-77
2023/12/08 01:17:02;;;;;;;;;;;;;;;;;;5074217;28;19978;-77
2023/12/08 01:19:29;;;;;;;;;;;;;;;;;;5073818;28;20388;-77
2023/12/08 01:21:55;;;;;;;;;;;;;;;;;;5072021;28;19925;-80
2023/12/08 01:24:21;;;;;;;;;;;;;;;;;;5073654;28;19925;-77
2023/12/08 01:26:47;;;;;;;;;;;;;;;;;;5073877;28;19925;-77
2023/12/08 01:29:14;;;;;;;;;;;;;;;;;;5073355;28;19985;-76
2023/12/08 01:31:40;;;;;;;;;;;;;;;;;;5072813;28;20438;-77
2023/12/08 01:34:06;;;;;;;;;;;;;;;;;;5073509;28;20277;-78
2023/12/08 01:36:34;;;;;;;9.60;9.00;;;;;;;;;;5072411;28;20407;-78
2023/12/08 01:39:01;;;;;;;4.82;4.35;;;;;;;;;;5071777;28;20087;-77
2023/12/08 01:41:27;;;;;;;3.45;3.17;;;;;;;;;;5073391;28;20481;-81
2023/12/08 01:43:54;;;;;;;4.97;3.75;;;;;;;;;;5077430;28;20179;-81
2023/12/08 01:46:21;;;;;;;4.18;3.67;;;;;;;;;;5075838;28;20048;-80
2023/12/08 01:48:47;;;;;;;3.60;3.30;;;;;;;;;;5078994;28;20048;-81
2023/12/08 01:51:15;;;;;;;4.80;4.50;;;;;;;;;;5073047;28;20057;-80
2023/12/08 01:53:43;;;;;;;2.60;2.50;;;;;;;;;;5072405;28;20045;-81
2023/12/08 01:56:11;;;;;;;3.63;3.42;;;;;;;;;;5073575;28;20082;-81
2023/12/08 01:58:38;;;;;;;3.15;2.63;;;;;;;;;;5072919;28;20048;-81
2023/12/08 02:01:05;;;;;;;3.53;3.33;;;;;;;;;;5073046;28;20049;-82
2023/12/08 02:03:33;;;;;;;3.05;2.42;;;;;;;;;;5072385;28;20098;-81
2023/12/08 02:06:00;;;;;;;2.88;2.67;;;;;;;;;;5073000;28;20044;-79
2023/12/08 02:08:27;;;;;;;4.90;4.47;;;;;;;;;;5072460;28;20106;-78
2023/12/08 02:10:55;;;;;;;3.92;3.72;;;;;;;;;;5072563;28;20048;-78
2023/12/08 02:13:22;;;;;;;2.97;2.78;;;;;;;;;;5070576;28;20097;-78
2023/12/08 02:15:50;;;;;;;4.55;4.15;;;;;;;;;;5072157;28;20053;-77
2023/12/08 02:18:17;;;;;;;3.40;3.15;;;;;;;;;;5072316;28;20117;-77
2023/12/08 02:20:44;;;;;;;4.10;3.80;;;;;;;;;;5072366;28;20052;-77
2023/12/08 02:23:10;;;;;;;4.07;3.78;;;;;;;;;;5072277;28;20102;-77
2023/12/08 02:25:38;;;;;;;3.65;3.03;;;;;;;;;;5071588;28;20044;-77
2023/12/08 02:28:05;;;;;;;3.72;3.42;;;;;;;;;;5072099;28;20105;-77
2023/12/08 02:30:32;;;;;;;3.20;2.97;;;;;;;;;;5070849;28;20056;-76
2023/12/08 02:33:03;;;;;;;2.53;2.33;;;;;;;;;;5072004;28;20059;-76
2023/12/08 02:35:30;;;;;;;4.60;2.33;;;;;;;;;;5071169;28;20501;-76
2023/12/08 02:37:57;;;;;;;2.75;2.45;;;;;;;;;;5071824;28;20483;-76
2023/12/08 02:40:24;;;;;;;3.03;2.83;;;;;;;;;;5072134;28;20045;-77
2023/12/08 02:42:52;;;;;;;4.20;3.90;;;;;;;;;;5071995;28;20048;-77
2023/12/08 02:45:18;;;;;;;2.72;2.53;;;;;;;;;;5071441;28;20102;-76
2023/12/08 02:47:44;;;;;;;4.00;3.65;;;;;;;;;;5071493;28;20117;-84
2023/12/08 02:50:10;;;;;;;2.33;2.22;;;;;;;;;;5073395;28;20052;-84
2023/12/08 02:52:37;;;;;;;2.00;1.90;;;;;;;;;;5071995;28;20105;-85
2023/12/08 02:55:04;;;;;;;4.32;4.00;;;;;;;;;;5072295;28;20095;-84
2023/12/08 02:57:30;;;;;;;3.40;3.20;;;;;;;;;;5073725;28;20049;-85
2023/12/08 02:59:58;;;;;;;4.63;4.30;;;;;;;;;;5073773;28;20497;-85
2023/12/08 03:02:25;;;;;;;5.97;4.57;;;;;;;;;;5072971;28;20669;-83
2023/12/08 03:04:51;;;;;;;2.38;2.17;;;;;;;;;;5072096;28;20052;-79
2023/12/08 03:07:18;;;;;;;3.53;3.33;;;;;;;;;;5069563;28;20520;-79
2023/12/08 03:09:44;;;;;;;3.80;3.50;;;;;;;;;;5071705;28;20049;-78
2023/12/08 03:12:11;;;;;;;6.82;4.78;;;;;;;;;;5072459;28;20086;-78
2023/12/08 03:14:37;;;;;;;2.83;2.63;;;;;;;;;;5075889;28;20060;-76
2023/12/08 03:17:05;;;;;;;3.20;3.00;;;;;;;;;;5074942;28;20559;-77
2023/12/08 03:19:32;;;;;;;3.30;3.00;;;;;;;;;;5075767;28;20079;-78
2023/12/08 03:21:58;;;;;;;3.42;3.13;;;;;;;;;;5075887;28;20049;-78
2023/12/08 03:24:25;;;;;;;4.95;4.65;;;;;;;;;;5075622;28;20448;-78
2023/12/08 03:26:51;;;;;;;3.15;2.95;;;;;;;;;;5073544;28;20056;-79
2023/12/08 03:29:17;;;;;;;2.78;2.58;;;;;;;;;;5074329;28;20464;-77
2023/12/08 03:31:44;;;;;;;4.38;3.97;;;;;;;;;;5075720;28;20048;-80
2023/12/08 03:34:12;;;;;;;5.25;4.85;;;;;;;;;;5075670;28;20147;-78
2023/12/08 03:36:38;;;;;;;3.92;3.70;;;;;;;;;;5074648;28;20451;-79
2023/12/08 03:39:05;;;;;;;3.28;3.08;;;;;;;;;;5075395;28;20093;-81
2023/12/08 03:41:32;;;;;;;3.80;3.60;;;;;;;;;;5077527;28;20135;-80
2023/12/08 03:43:58;;;;;;;4.38;4.05;;;;;;;;;;5075353;28;20044;-81
2023/12/08 03:46:25;;;;;;;4.05;3.75;;;;;;;;;;5074246;28;20048;-80
2023/12/08 03:48:51;;;;;;;3.80;3.45;;;;;;;;;;5074045;28;20451;-78
2023/12/08 03:51:19;;;;;;;2.80;2.60;;;;;;;;;;5075478;28;20102;-79
2023/12/08 03:53:46;;;;;;;4.28;3.30;;;;;;;;;;5075692;28;20052;-78
2023/12/08 03:56:13;;;;;;;4.32;3.70;;;;;;;;;;5075520;28;20062;-79
2023/12/08 03:58:39;;;;;;;3.17;2.97;;;;;;;;;;5074210;28;20374;-78
2023/12/08 04:01:06;;;;;;;6.07;4.65;;;;;;;;;;5074784;28;20090;-77
2023/12/08 04:03:33;;;;;;;4.40;4.05;;;;;;;;;;5073939;28;20044;-76
2023/12/08 04:05:59;;;;;;;4.07;3.78;;;;;;;;;;5074814;28;20485;-77
2023/12/08 04:08:27;;;;;;;5.50;5.22;;;;;;;;;;5074293;28;20052;-76
2023/12/08 04:10:54;;;;;;;8.38;7.78;;;;;;;;;;5074758;28;20044;-76
2023/12/08 04:13:20;;;;;;;6.53;6.03;;;;;;;;;;5074691;28;20044;-75
2023/12/08 04:15:46;;;;;;;;;;;;;;;;;;5070465;28;20455;-74
2023/12/08 04:18:13;;;;;;;;;;;;;;;;;;5065220;28;19982;-73
2023/12/08 04:20:39;;;;;;;;;;;;;;;;;;5067974;28;19921;-74
2023/12/08 04:23:06;;;;;;;;;;;;;;;;;;5063855;28;19921;-75
2023/12/08 04:25:32;;;;;;;;;;;;;;;;;;5063932;28;19952;-76
2023/12/08 04:27:58;;;;;;;;;;;;;;;;;;5065141;28;20285;-75
2023/12/08 04:30:24;;;;;;;;;;;;;;;;;;5066074;28;20423;-75
2023/12/08 04:32:51;;;;;;;;;;;;;;;;;;5064322;28;20381;-76
2023/12/08 04:35:17;;;;;;;;;;;;;;;;;;5063283;28;19928;-74
2023/12/08 04:37:43;;;;;;;;;;;;;;;;;;5066577;28;19927;-74
2023/12/08 04:40:09;;;;;;;;;;;;;;;;;;5065622;28;19920;-74
2023/12/08 04:42:36;;;;;;;;;;;;;;;;;;5064401;28;20274;-75
2023/12/08 04:45:02;;;;;;;;;;;;;;;;;;5064578;28;19920;-75
2023/12/08 04:47:28;;;;;;;;;;;;;;;;;;5062706;28;19924;-76
2023/12/08 04:49:55;;;;;;;;;;;;;;;;;;5065768;28;20376;-76
2023/12/08 04:52:21;;;;;;;;;;;;;;;;;;5064137;28;19924;-76
2023/12/08 04:54:47;;;;;;;;;;;;;;;;;;5062039;28;19975;-76
2023/12/08 04:57:14;;;;;;;;;;;;;;;;;;5064158;28;20330;-76
2023/12/08 04:59:40;;;;;;;;;;;;;;;;;;5062087;28;19924;-76
2023/12/08 05:02:06;;;;;;;;;;;;;;;;;;5064025;28;19986;-77
2023/12/08 05:04:32;;;;;;;;;;;;;;;;;;5063162;28;19929;-74
2023/12/08 05:06:59;;;;;;;;;;;;;;;;;;5064596;28;20349;-74
2023/12/08 05:09:25;;;;;;;;;;;;;;;;;;5066438;28;19932;-74
2023/12/08 05:11:51;;;;;;;;;;;;;;;;;;5065210;28;19928;-75
2023/12/08 05:14:19;;;;;;;;;;;;;;;;;;5063805;28;19974;-75
2023/12/08 05:16:45;;;;;;;;;;;;;;;;;;5062475;28;20419;-75
2023/12/08 05:19:11;;;;;;;;;;;;;;;;;;5064191;28;19989;-75
2023/12/08 05:21:38;;;;;;;;;;;;;;;;;;5064196;28;19963;-75
2023/12/08 05:24:04;;;;;;;;;;;;;;;;;;5066894;28;19920;-75
2023/12/08 05:26:30;;;;;;;;;;;;;;;;;;5070444;28;20441;-75
2023/12/08 05:28:57;;;;;;;;;;;;;;;;;;5071783;28;20014;-76
2023/12/08 05:31:23;;;;;;;;;;;;;;;;;;5071788;28;19920;-75
2023/12/08 05:33:49;;;;;;;;;;;;;;;;;;5071447;28;20423;-76
2023/12/08 05:36:16;;;;;;;;;;;;;;;;;;5061641;28;19976;-76
2023/12/08 05:38:42;;;;;;;;;;;;;;;;;;5067457;28;20444;-75
2023/12/08 05:41:08;;;;;;;;;;;;;;;;;;5071634;28;19924;-76
2023/12/08 05:43:34;;;;;;;;;;;;;;;;;;5071976;28;19926;-76
2023/12/08 05:46:01;;;;;;;;;;;;;;;;;;5068819;28;20065;-75
2023/12/08 05:48:27;;;;;;;;;;;;;;;;;;5064276;28;19928;-74
2023/12/08 05:50:53;;;;;;;;;;;;;;;;;;5065352;28;19920;-75
2023/12/08 05:53:20;;;;;;;;;;;;;;;;;;5071317;28;20303;-74
2023/12/08 05:55:46;;;;;;;;;;;;;;;;;;5071411;28;19924;-77
2023/12/08 05:58:12;;;;;;;;;;;;;;;;;;5071933;28;19970;-72
2023/12/08 06:00:38;;;;;;;;;;;;;;;;;;5071513;28;19920;-73
2023/12/08 06:03:05;;;;;;;;;;;;;;;;;;5070868;28;20422;-74
2023/12/08 06:05:31;;;;;;;;;;;;;;;;;;5071710;28;19928;-74
2023/12/08 06:07:57;;;;;;;;;;;;;;;;;;5068860;28;19928;-74
2023/12/08 06:10:23;;;;;;;;;;;;;;;;;;5072006;28;19920;-75
2023/12/08 06:12:50;;;;;;;;;;;;;;;;;;5069439;28;19926;-75
2023/12/08 06:15:16;;;;;;;;;;;;;;;;;;5071219;28;19928;-75
2023/12/08 06:17:42;;;;;;;;;;;;;;;;;;5070707;28;20438;-75
2023/12/08 06:20:10;;;;;;;;;;;;;;;;;;5071268;28;19924;-75
2023/12/08 06:22:36;;;;;;;;;;;;;;;;;;5070589;28;19925;-74
2023/12/08 06:25:02;;;;;;;;;;;;;;;;;;5067023;28;19928;-74
2023/12/08 06:27:28;;;;;;;;;;;;;;;;;;5070248;28;20381;-75
2023/12/08 06:29:55;;;;;;;;;;;;;;;;;;5068134;28;19924;-79
2023/12/08 06:32:21;;;;;;;;;;;;;;;;;;5069328;28;19970;-79
2023/12/08 06:34:47;;;;;;;;;;;;;;;;;;5066964;28;19928;-79
2023/12/08 06:37:14;;;;;;;;;;;;;;;;;;5069390;28;19999;-79
2023/12/08 06:39:40;;;;;;;;;;;;;;;;;;5067911;28;19929;-79
2023/12/08 06:42:06;;;;;;;;;;;;;;;;;;5066545;28;20015;-79
2023/12/08 06:44:32;;;;;;;;;;;;;;;;;;5070619;28;19969;-74
2023/12/08 06:46:59;;;;;;;;;;;;;;;;;;5069428;28;20423;-80
2023/12/08 06:49:25;;;;;;;;;;;;;;;;;;5071255;28;19939;-81
2023/12/08 06:51:51;;;;;;;;;;;;;;;;;;5070488;28;20426;-81
2023/12/08 06:54:18;;;;;;;;;;;;;;;;;;5070597;28;19920;-80
2023/12/08 06:56:44;;;;;;;;;;;;;;;;;;5071911;28;19920;-79
2023/12/08 06:59:10;;;;;;;;;;;;;;;;;;5064190;28;19924;-82
2023/12/08 07:01:37;;;;;;;;;;;;;;;;;;5062604;28;19979;-81
2023/12/08 07:04:03;;;;;;;;;;;;;;;;;;5066160;28;19928;-83
2023/12/08 07:06:29;;;;;;;;;;;;;;;;;;5072390;28;20003;-82
2023/12/08 07:08:56;;;;;;;;;;;;;;;;;;5062958;28;20324;-82
2023/12/08 07:11:22;;;;;;;;;;;;;;;;;;5065400;28;19921;-82
2023/12/08 07:13:49;;;;;;;;;;;;;;;;;;5066630;28;19943;-81
2023/12/08 07:16:15;;;;;;;;;;;;;;;;;;5066243;28;19974;-82
2023/12/08 07:18:41;;;;;;;;;;;;;;;;;;5065417;28;19971;-82
2023/12/08 07:21:07;;;;;;;;;;;;;;;;;;5072580;28;19921;-81
2023/12/08 07:23:34;;;;;;;;;;;;;;;;;;5072302;28;20364;-83
2023/12/08 07:26:00;;;;;;;;;;;;;;;;;;5071235;28;19921;-82
2023/12/08 07:28:26;;;;;;;;;;;;;;;;;;5072003;28;20394;-81
2023/12/08 07:30:53;;;;;;;;;;;;;;;;;;5067983;28;19925;-80
2023/12/08 07:33:19;;;;;;;;;;;;;;;;;;5062672;28;19921;-80
2023/12/08 07:35:45;;;;;;;;;;;;;;;;;;5070503;28;19966;-81
2023/12/08 07:38:11;;;;;;;;;;;;;;;;;;5064606;28;19921;-80
2023/12/08 07:40:38;;;;;;;;;;;;;;;;;;5072047;28;20283;-81
2023/12/08 07:43:04;;;;;;;;;;;;;;;;;;5072094;28;19973;-81
2023/12/08 07:45:30;;;;;;;;;;;;;;;;;;5071989;28;19920;-81
2023/12/08 07:47:57;;;;;;;;;;;;;;;;;;5071119;28;19920;-80
2023/12/08 07:50:24;;;;;;;;;;;;;;;;;;5071900;28;19924;-81
2023/12/08 07:52:51;;;;;;;;;;;;;;;;;;5072021;28;19920;-81
2023/12/08 07:55:18;;;;;;;;;;;;;;;;;;5071389;28;19921;-81
2023/12/08 07:57:44;;;;;;;;;;;;;;;;;;5070492;28;19920;-81
2023/12/08 08:00:11;;;;;;;;;;;;;;;;;;5075340;28;19949;-82
2023/12/08 08:02:37;;;;;;;;;;;;;;;;;;5075328;28;20018;-82
2023/12/08 08:05:03;;;;;;;;;;;;;;;;;;5075685;28;20433;-81
2023/12/08 08:07:30;;;;;;;;;;;;;;;;;;5077958;28;19920;-80
2023/12/08 08:09:56;;;;;;;;;;;;;;;;;;5076053;28;19978;-80
2023/12/08 08:12:22;;;;;;;;;;;;;;;;;;5074756;28;20422;-82
2023/12/08 08:14:48;;;;;;;;;;;;;;;;;;5075258;28;19920;-81
2023/12/08 08:17:15;;;;;;;;;;;;;;;;;;5074632;28;19974;-81
2023/12/08 08:19:41;;;;;;;;;;;;;;;;;;5071176;28;19928;-81
2023/12/08 08:22:08;;;;;;;;;;;;;;;;;;5075366;28;19973;-80
2023/12/08 08:24:34;;;;;;;;;;;;;;;;;;5071932;28;20324;-81
2023/12/08 08:27:01;;;;;;;;;;;;;;;;;;5075860;28;19925;-81
2023/12/08 08:29:27;;;;;;;;;;;;;;;;;;5074379;28;19920;-80
2023/12/08 08:31:53;;;;;;;;;;;;;;;;;;5075893;28;19978;-81
2023/12/08 08:34:19;;;;;;;;;;;;;;;;;;5074514;28;20262;-81
2023/12/08 08:36:46;;;;;;;;;;;;;;;;;;5075424;28;19966;-81
2023/12/08 08:39:14;;;;;;;;;;;;;;;;;;5075476;28;19921;-81
2023/12/08 08:41:41;;;;;;;;;;;;;;;;;;5075386;28;19925;-80
2023/12/08 08:44:07;;;;;;;;;;;;;;;;;;5072424;28;19920;-82
2023/12/08 08:46:33;;;;;;;;;;;;;;;;;;5066843;28;20386;-81
2023/12/08 08:48:59;;;;;;;;;;;;;;;;;;5066096;28;20039;-82
2023/12/08 08:51:26;;;;;;;;;;;;;;;;;;5072368;28;19977;-81
2023/12/08 08:53:54;;;;;;;;;;;;;;;;;;5074704;28;19921;-80
2023/12/08 08:56:20;;;;;;;;;;;;;;;;;;5074673;28;19924;-80
2023/12/08 08:58:47;;;;;;;;;;;;;;;;;;5073766;28;19924;-84
2023/12/08 09:01:13;;;;;;;;;;;;;;;;;;5074246;28;19942;-79
2023/12/08 09:03:39;;;;;;;;;;;;;;;;;;5074151;28;19920;-80
2023/12/08 09:06:06;;;;;;;;;;;;;;;;;;5073853;28;19924;-80
2023/12/08 09:08:32;;;;;;;;;;;;;;;;;;5065284;28;20319;-79
2023/12/08 09:10:59;;;;;;;;;;;;;;;;;;5070300;28;19920;-81
2023/12/08 09:16:00;;;;;;;;;;;;;;;;;;5500467;22;19920;-76
2023/12/08 09:18:26;;;;;;;;;;;;;;;;;;5068996;22;19925;-79
2023/12/08 09:20:52;;;;;;;;;;;;;;;;;;5046452;28;19948;-79
2023/12/08 09:23:19;;;;;;;;;;;;;;;;;;5051089;28;19924;-78
2023/12/08 09:25:45;;;;;;;;;;;;;;;;;;5053563;28;19920;-79
2023/12/08 09:28:12;;;;;;;;;;;;;;;;;;5053431;28;19924;-79
2023/12/08 09:30:39;;;;;;;;;;;;;;;;;;5051976;28;20395;-79
2023/12/08 09:33:07;;;;;;;;;;;;;;;;;;5049189;28;19921;-79
2023/12/08 09:35:33;;;;;;;;;;;;;;;;;;5052871;28;20297;-78
2023/12/08 09:37:59;;;;;;;;;;;;;;;;;;5053190;28;19928;-80
2023/12/08 09:40:26;;;;;;;;;;;;;;;;;;5052022;28;19924;-80
2023/12/08 09:42:52;;;;;;;;;;;;;;;;;;5050568;28;19982;-81
2023/12/08 09:45:18;;;;;;;;;;;;;;;;;;5052926;28;19928;-78
2023/12/08 09:47:45;;;;;;;;;;;;;;;;;;5053087;28;19921;-77
2023/12/08 09:50:12;;;;;;;;;;;;;;;;;;5052689;28;19920;-78
2023/12/08 09:52:38;;;;;;;;;;;;;;;;;;5051936;28;19925;-77
2023/12/08 09:55:04;;;;;;;;;;;;;;;;;;5052914;28;19921;-78
2023/12/08 09:57:31;;;;;;;;;;;;;;;;;;5052684;28;19928;-82
2023/12/08 09:59:57;;;;;;;;;;;;;;;;;;5052738;28;19921;-78
2023/12/08 10:02:23;;;;;;;;;;;;;;;;;;5052072;28;19971;-78
2023/12/08 10:04:49;;;;;;;;;;;;;;;;;;5052429;28;20422;-78
2023/12/08 10:07:16;;;;;;;;;;;;;;;;;;5052829;28;19928;-79
2023/12/08 10:09:42;;;;;;;;;;;;;;;;;;5052863;28;19921;-78
2023/12/08 10:12:08;;;;;;;;;;;;;;;;;;5051822;28;19978;-78
2023/12/08 10:14:34;;;;;;;;;;;;;;;;;;5049792;28;19925;-78
2023/12/08 10:17:02;;;;;;;;;;;;;;;;;;5052138;28;20380;-78
2023/12/08 10:19:28;;;;;;;;;;;;;;;;;;5035389;28;19928;-78
2023/12/08 10:21:55;;;;;;;;;;;;;;;;;;5051854;28;19958;-79
2023/12/08 10:24:21;;;;;;;;;;;;;;;;;;5049086;28;20016;-79
2023/12/08 10:26:47;;;;;;;;;;;;;;;;;;5051622;28;20003;-79
2023/12/08 10:29:13;;;;;;;;;;;;;;;;;;5052203;28;19925;-80
2023/12/08 10:31:40;;;;;;;;;;;;;;;;;;5049098;28;19921;-78
2023/12/08 10:34:07;;;;;;;;;;;;;;;;;;5041159;28;19921;-79
2023/12/08 10:36:33;;;;;;;;;;;;;;;;;;5032343;28;19925;-79
2023/12/08 10:38:59;;;;;;;;;;;;;;;;;;5031634;28;19967;-78
2023/12/08 10:41:25;;;;;;;;;;;;;;;;;;5050096;28;20385;-79
2023/12/08 10:43:52;;;;;;;;;;;;;;;;;;5047195;28;19934;-78
2023/12/08 10:46:18;;;;;;;;;;;;;;;;;;5052059;28;19925;-79
2023/12/08 10:48:45;;;;;;;;;;;;;;;;;;5051464;28;19951;-79
2023/12/08 10:51:13;;;;;;;;;;;;;;;;;;5052239;28;19936;-79
2023/12/08 10:53:39;;;;;;;;;;;;;;;;;;5051122;28;20015;-79
2023/12/08 10:56:06;;;;;;;;;;;;;;;;;;5051068;28;20380;-79
2023/12/08 10:58:32;;;;;;;;;;;;;;;;;;5058694;28;19924;-80
2023/12/08 11:00:58;;;;;;;;;;;;;;;;;;5052023;28;19974;-79
2023/12/08 11:03:25;;;;;;;;;;;;;;;;;;5051081;28;19921;-79
2023/12/08 11:05:51;;;;;;;;;;;;;;;;;;5051584;28;19924;-79
2023/12/08 11:08:17;;;;;;;;;;;;;;;;;;5051938;28;19921;-79
2023/12/08 11:10:43;;;;;;;;;;;;;;;;;;5052155;28;19975;-79
2023/12/08 11:13:10;;;;;;;;;;;;;;;;;;5051966;28;19963;-79
2023/12/08 11:15:36;;;;;;;;;;;;;;;;;;5051119;28;19921;-79
2023/12/08 11:18:02;;;;;;;;;;;;;;;;;;5051672;28;19979;-79
2023/12/08 11:20:29;;;;;;;;;;;;;;;;;;5051255;28;19924;-78
2023/12/08 11:22:55;;;;;;;;;;;;;;;;;;5051784;28;19971;-79
2023/12/08 11:25:21;;;;;;;;;;;;;;;;;;5047860;28;19921;-78
2023/12/08 11:27:48;;;;;;;;;;;;;;;;;;5047946;28;19929;-79
2023/12/08 11:30:14;;;;;;;;;;;;;;;;;;5051797;28;19920;-79
2023/12/08 11:32:40;;;;;;;;;;;;;;;;;;5051683;28;19943;-78
2023/12/08 11:35:07;;;;;;;;;;;;;;;;;;5053269;28;19921;-79
2023/12/08 11:37:33;;;;;;;;;;;;;;;;;;5051610;28;19949;-79
2023/12/08 11:40:00;;;;;;;;;;;;;;;;;;5055736;28;19921;-79
2023/12/08 11:42:26;;;;;;;;;;;;;;;;;;5055623;28;19921;-78
2023/12/08 11:44:52;;;;;;;;;;;;;;;;;;5054979;28;19971;-78
2023/12/08 11:47:18;;;;;;;;;;;;;;;;;;5054920;28;20403;-79
2023/12/08 11:49:45;;;;;;;;;;;;;;;;;;5054950;28;19921;-79
2023/12/08 11:52:10;;;;;;;;;;;;;;;;;;5051749;28;19982;-79
2023/12/08 11:54:36;;;;;;;;;;;;;;;;;;5050815;28;19921;-79
2023/12/08 11:57:03;;;;;;;;;;;;;;;;;;5044411;28;19929;-79
2023/12/08 11:59:29;;;;;;;;;;;;;;;;;;5050299;28;19924;-80
2023/12/08 12:01:55;;;;;;;;;;;;;;;;;;5050824;28;19920;-79
2023/12/08 12:04:21;;;;;;;;;;;;;;;;;;5049582;28;19943;-80
2023/12/08 12:06:52;;;;;;;;;;;;;;;;;;5054413;28;19970;-80
2023/12/08 12:09:18;;;;;;;;;;;;;;;;;;5047043;28;19928;-79
2023/12/08 12:11:44;;;;;;;;;;;;;;;;;;5043481;28;19921;-79
2023/12/08 12:14:11;;;;;;;;;;;;;;;;;;5050237;28;19975;-79
2023/12/08 12:16:37;;;;;;;;;;;;;;;;;;5053970;28;20426;-79
2023/12/08 12:19:04;;;;;;;;;;;;;;;;;;5054064;28;19932;-79
2023/12/08 12:21:30;;;;;;;;;;;;;;;;;;5054520;28;19990;-79
2023/12/08 12:23:56;;;;;;;;;;;;;;;;;;5054830;28;19924;-79
2023/12/08 12:26:22;;;;;;;;;;;;;;;;;;5054705;28;19975;-78
2023/12/08 12:28:49;;;;;;;;;;;;;;;;;;5046149;28;20365;-79
2023/12/08 12:31:15;;;;;;;;;;;;;;;;;;5054421;28;19920;-78
2023/12/08 12:33:41;;;;;;;;;;;;;;;;;;5054744;28;20023;-79
2023/12/08 12:36:08;;;;;;;;;;;;;;;;;;5054690;28;19928;-77
2023/12/08 12:38:34;;;;;;;;;;;;;;;;;;5048677;28;20596;-78
2023/12/08 12:41:00;;;;;;;;;;;;;;;;;;5054449;28;19982;-78
2023/12/08 12:43:26;;;;;;;;;;;;;;;;;;5054639;28;19920;-78
2023/12/08 12:45:53;;;;;;;;;;;;;;;;;;5052975;28;19978;-78
2023/12/08 12:48:19;;;;;;;;;;;;;;;;;;5050240;28;19928;-77
2023/12/08 12:50:45;;;;;;;;;;;;;;;;;;5033883;28;20340;-78
2023/12/08 12:53:12;;;;;;;;;;;;;;;;;;5034518;28;19921;-77
2023/12/08 12:55:38;;;;;;;;;;;;;;;;;;5034514;28;20404;-79
2023/12/08 12:58:05;;;;;;;;;;;;;;;;;;5038141;28;19983;-79
2023/12/08 13:00:31;;;;;;;;;;;;;;;;;;5037798;28;19921;-78
2023/12/08 13:02:57;;;;;;;;;;;;;;;;;;5034088;28;20007;-78
2023/12/08 13:05:24;;;;;;;;;;;;;;;;;;5049975;28;20291;-79
2023/12/08 13:07:50;;;;;;;;;;;;;;;;;;5051800;28;19925;-79
2023/12/08 13:10:16;;;;;;;;;;;;;;;;;;5049338;28;19928;-79
2023/12/08 13:12:42;;;;;;;;;;;;;;;;;;5042745;28;20372;-80
2023/12/08 13:15:09;;;;;;;;;;;;;;;;;;5043256;28;19929;-77
2023/12/08 13:17:35;;;;;;;;;;;;;;;;;;5039711;28;19952;-78
2023/12/08 13:20:01;;;;;;;;;;;;;;;;;;5046499;28;19966;-78
2023/12/08 13:22:28;;;;;;;;;;;;;;;;;;5033770;28;19947;-79
2023/12/08 13:24:54;;;;;;;;;;;;;;;;;;5037559;28;19967;-78
2023/12/08 13:27:20;;;;;;;;;;;;;;;;;;5053404;28;19931;-78
2023/12/08 13:29:46;;;;;;;;;;;;;;;;;;5051515;28;19925;-78
2023/12/08 13:32:13;;;;;;;;;;;;;;;;;;5046212;28;20273;-80
2023/12/08 13:34:39;;;;;;;;;;;;;;;;;;5053515;28;19969;-79
2023/12/08 13:37:05;;;;;;;;;;;;;;;;;;5033720;28;19921;-79
2023/12/08 13:39:31;;;;;;;;;;;;;;;;;;5036506;28;20011;-79
2023/12/08 13:41:58;;;;;;;;;;;;;;;;;;5038024;28;19925;-79
2023/12/08 13:44:24;;;;;;;;;;;;;;;;;;5036782;28;19967;-79
2023/12/08 13:46:51;;;;;;;;;;;;;;;;;;5051167;28;20372;-78
2023/12/08 13:49:17;;;;;;;;;;;;;;;;;;5050758;28;19990;-79
2023/12/08 13:51:44;;;;;;;;;;;;;;;;;;5042841;28;20337;-79
2023/12/08 13:54:10;;;;;;;;;;;;;;;;;;5052888;28;19974;-79
2023/12/08 13:56:36;;;;;;;;;;;;;;;;;;5052280;28;19921;-80
2023/12/08 13:59:02;;;;;;;;;;;;;;;;;;5049275;28;19959;-79
2023/12/08 14:01:29;;;;;;;;;;;;;;;;;;5048319;28;19948;-79
2023/12/08 14:03:55;;;;;;;;;;;;;;;;;;5044928;28;19921;-73
2023/12/08 14:06:21;;;;;;;;;;;;;;;;;;5052721;28;19927;-77
2023/12/08 14:08:50;;;;;;;;;;;;;;;;;;5052767;28;20381;-77
2023/12/08 14:11:16;;;;;;;;;;;;;;;;;;5052166;28;19982;-77
2023/12/08 14:13:43;;;;;;;;;;;;;;;;;;5055088;28;19928;-78
2023/12/08 14:16:09;;;;;;;;;;;;;;;;;;5052661;28;20377;-79
2023/12/08 14:18:36;;;;;;;;;;;;;;;;;;5052170;28;20008;-76
2023/12/08 14:21:02;;;;;;;;;;;;;;;;;;5051620;28;20336;-78
2023/12/08 14:23:28;;;;;;;;;;;;;;;;;;5044813;28;19994;-78
2023/12/08 14:25:54;;;;;;;;;;;;;;;;;;5052935;28;19939;-78
2023/12/08 14:28:21;;;;;;;;;;;;;;;;;;5051113;28;19921;-79
2023/12/08 14:30:47;;;;;;;;;;;;;;;;;;5050737;28;19924;-76
2023/12/08 14:33:14;;;;;;;;;;;;;;;;;;5047282;28;20324;-77
2023/12/08 14:35:42;;;;;;;;;;;;;;;;;;5051548;28;20444;-79
2023/12/08 14:38:08;;;;;;;;;;;;;;;;;;5051700;28;20528;-78
2023/12/08 14:40:35;;;;;;;;;;;;;;;;;;5045455;28;19932;-78
2023/12/08 14:43:01;;;;;;;;;;;;;;;;;;5046188;28;20007;-79
2023/12/08 14:45:27;;;;;;;;;;;;;;;;;;5052349;28;19929;-77
2023/12/08 14:47:54;;;;;;;;;;;;;;;;;;5052107;28;20011;-76
2023/12/08 14:50:21;;;;;;;;;;;;;;;;;;5052377;28;19925;-74
2023/12/08 14:52:47;;;;;;;;;;;;;;;;;;5051300;28;19932;-77
2023/12/08 14:55:13;;;;;;;;;;;;;;;;;;5050389;28;20066;-77
2023/12/08 14:57:39;;;;;;;;;;;;;;;;;;5051990;28;19933;-77
2023/12/08 15:00:09;;;;;;;;;;;;;;;;;;5052163;28;19929;-74
2023/12/08 15:02:36;;;;;;;;;;;;;;;;;;5048145;28;19978;-75
2023/12/08 15:05:02;;;;;;;;;;;;;;;;;;5045025;28;19932;-76
2023/12/08 15:07:28;;;;;;;;;;;;;;;;;;5046443;28;19928;-76
2023/12/08 15:09:54;;;;;;;;;;;;;;;;;;5046511;28;19979;-76
2023/12/08 15:12:21;;;;;;;;;;;;;;;;;;5051618;28;19924;-76
2023/12/08 15:14:47;;;;;;;;;;;;;;;;;;5050094;28;20521;-76
2023/12/08 15:17:14;;;;;;;;;;;;;;;;;;5044455;28;19925;-76
2023/12/08 15:19:40;;;;;;;;;;;;;;;;;;5048895;28;19929;-75
2023/12/08 15:22:08;;;;;;;;;;;;;;;;;;5046004;28;19925;-76
2023/12/08 15:24:34;;;;;;;;;;;;;;;;;;5051055;28;19929;-76
2023/12/08 15:27:00;;;;;;;;;;;;;;;;;;5051333;28;19959;-76
2023/12/08 15:29:27;;;;;;;;;;;;;;;;;;5051849;28;20285;-76
2023/12/08 15:31:53;;;;;;;;;;;;;;;;;;5049857;28;19929;-76
2023/12/08 15:34:19;;;;;;;;;;;;;;;;;;5050994;28;19987;-76
2023/12/08 15:36:45;;;;;;;;;;;;;;;;;;5041817;28;19925;-76
2023/12/08 15:39:12;;;;;;;;;;;;;;;;;;5038399;28;19925;-76
2023/12/08 15:41:38;;;;;;;;;;;;;;;;;;5048098;28;19990;-77
2023/12/08 15:44:05;;;;;;;;;;;;;;;;;;5034485;28;19932;-76
2023/12/08 15:46:31;;;;;;;;;;;;;;;;;;5044616;28;19924;-77
2023/12/08 15:48:57;;;;;;;;;;;;;;;;;;5051584;28;19928;-77
2023/12/08 15:51:23;;;;;;;;;;;;;;;;;;5051560;28;20363;-77
2023/12/08 15:53:50;;;;;;;;;;;;;;;;;;5051101;28;19932;-77
2023/12/08 15:56:16;;;;;;;;;;;;;;;;;;5046527;28;19983;-77
2023/12/08 15:58:42;;;;;;;;;;;;;;;;;;5049791;28;19932;-77
2023/12/08 16:01:08;;;;;;;;;;;;;;;;;;5051601;28;20397;-77
2023/12/08 16:03:35;;;;;;;;;;;;;;;;;;5051390;28;19925;-77
2023/12/08 16:06:01;;;;;;;;;;;;;;;;;;5050142;28;19979;-77
2023/12/08 16:08:27;;;;;;;;;;;;;;;;;;5042326;28;19925;-77
2023/12/08 16:10:53;;;;;;;;;;;;;;;;;;5041828;28;20310;-77
2023/12/08 16:13:20;;;;;;;;;;;;;;;;;;5055732;28;19929;-77
2023/12/08 16:15:46;;;;;;;;;;;;;;;;;;5050258;28;19932;-77
2023/12/08 16:18:12;;;;;;;;;;;;;;;;;;5050976;28;20669;-76
2023/12/08 16:20:38;;;;;;;;;;;;;;;;;;5053915;28;19995;-76